Taipei/Taiwan Taoyuan International Airport

Airport
ICAO code: 
RCTP
IATA Code: 
TPE
Summary
ICAO Region: 
APAC
Territory: 
Location: 
Taoyuan, Northern Taiwan
Serving: 
Taipei
Elevation: 
119 ft
Coordinates: 
Aerial View: 
25° 4' 47.203" N, 121° 14' 0.356" E
Airport LOS: 
Parallel Runway Operation
Airport WX: 
Tropical Revolving Storm
Metar
Observation
RCTP 201000Z 06020KT 9999 FEW012 BKN020 BKN100 17/13 Q1019 NOSIG RMK A3009
Station
Chiang Kai Shek
Date/Time
2022-01-20 10:00:00
Wind direction
60°
Wind speed
20 kts
Lowest cloud amount
few clouds
Temperature
17°C
Dew point
13°C
Humidity
77%
QNH
1019 hPa
Weather condition
n/a

Description

Taiwan Taoyuan International Airport is an international airport located in Dayuan Township, Taoyuan County, Taiwan. It is one of three Taiwanese airports with regular international flights. Opened in 1979, the airport was known as Chiang Kai-shek International Airport until the name was changed in 2006 to its current name.

Climatology

Humid “subtropical” climate (Köppen climate classification Cfa) - characterized by hot, humid summers and cool winters. Significant amounts of precipitation occur in all seasons in most areas. Winter rainfall is associated with large storms.

Runways

Designator Length Width Surface Rops
6/24 3350 60 CON Yes/Yes
5/23 3660 60 CON Yes/Yes
Airport map: 
Aerial View: 

Accidents and Serious Incidents at or in the vicinity of RCTP

SKYbrary Partners:

Safety knowledge contributed by: